sensor_id;sensor_type;location;lat;lon;timestamp;P1;durP1;ratioP1;P2;durP2;ratioP2
18130;SDS011;9191;54.324;10.126;2022-08-01T00:01:31;20.73;;;18.67;;
18130;SDS011;9191;54.324;10.126;2022-08-01T00:03:58;20.17;;;18.13;;
18130;SDS011;9191;54.324;10.126;2022-08-01T00:06:26;22.50;;;20.30;;
18130;SDS011;9191;54.324;10.126;2022-08-01T00:08:53;23.20;;;20.77;;
18130;SDS011;9191;54.324;10.126;2022-08-01T00:11:20;23.00;;;20.70;;
18130;SDS011;9191;54.324;10.126;2022-08-01T00:13:47;22.90;;;20.52;;
18130;SDS011;9191;54.324;10.126;2022-08-01T00:16:14;23.25;;;20.75;;
18130;SDS011;9191;54.324;10.126;2022-08-01T00:18:41;25.38;;;22.45;;
18130;SDS011;9191;54.324;10.126;2022-08-01T00:21:08;24.65;;;22.02;;
18130;SDS011;9191;54.324;10.126;2022-08-01T00:23:36;25.15;;;22.42;;
18130;SDS011;9191;54.324;10.126;2022-08-01T00:26:03;27.98;;;23.42;;
18130;SDS011;9191;54.324;10.126;2022-08-01T00:28:30;28.30;;;23.98;;
18130;SDS011;9191;54.324;10.126;2022-08-01T00:30:57;29.38;;;22.80;;
18130;SDS011;9191;54.324;10.126;2022-08-01T00:33:24;28.15;;;24.35;;
18130;SDS011;9191;54.324;10.126;2022-08-01T00:35:51;27.80;;;24.77;;
18130;SDS011;9191;54.324;10.126;2022-08-01T00:38:17;27.55;;;23.92;;
18130;SDS011;9191;54.324;10.126;2022-08-01T00:40:46;25.58;;;22.88;;
18130;SDS011;9191;54.324;10.126;2022-08-01T00:43:13;25.38;;;22.55;;
18130;SDS011;9191;54.324;10.126;2022-08-01T00:45:40;26.53;;;23.20;;
18130;SDS011;9191;54.324;10.126;2022-08-01T00:48:07;26.83;;;23.92;;
18130;SDS011;9191;54.324;10.126;2022-08-01T00:50:34;30.42;;;24.00;;
18130;SDS011;9191;54.324;10.126;2022-08-01T00:53:01;28.60;;;24.10;;
18130;SDS011;9191;54.324;10.126;2022-08-01T00:55:28;29.35;;;24.42;;
18130;SDS011;9191;54.324;10.126;2022-08-01T00:57:57;30.75;;;25.40;;
18130;SDS011;9191;54.324;10.126;2022-08-01T01:00:24;31.88;;;25.55;;
18130;SDS011;9191;54.324;10.126;2022-08-01T01:02:52;36.60;;;27.00;;
18130;SDS011;9191;54.324;10.126;2022-08-01T01:05:19;38.08;;;28.05;;
18130;SDS011;9191;54.324;10.126;2022-08-01T01:07:48;35.33;;;28.05;;
18130;SDS011;9191;54.324;10.126;2022-08-01T01:10:22;36.87;;;28.90;;
18130;SDS011;9191;54.324;10.126;2022-08-01T01:12:55;40.72;;;28.45;;
18130;SDS011;9191;54.324;10.126;2022-08-01T01:15:32;44.05;;;29.67;;
18130;SDS011;9191;54.324;10.126;2022-08-01T01:18:07;42.10;;;30.10;;
18130;SDS011;9191;54.324;10.126;2022-08-01T01:20:37;46.13;;;30.23;;
18130;SDS011;9191;54.324;10.126;2022-08-01T01:23:15;44.40;;;29.52;;
18130;SDS011;9191;54.324;10.126;2022-08-01T01:26:05;44.88;;;29.75;;
18130;SDS011;9191;54.324;10.126;2022-08-01T01:29:02;43.45;;;28.15;;
18130;SDS011;9191;54.324;10.126;2022-08-01T01:31:32;43.33;;;29.10;;
18130;SDS011;9191;54.324;10.126;2022-08-01T01:34:06;43.53;;;28.38;;
18130;SDS011;9191;54.324;10.126;2022-08-01T01:36:35;45.42;;;29.58;;
18130;SDS011;9191;54.324;10.126;2022-08-01T01:39:03;41.80;;;28.65;;
18130;SDS011;9191;54.324;10.126;2022-08-01T01:41:31;45.50;;;29.00;;
18130;SDS011;9191;54.324;10.126;2022-08-01T01:44:02;44.30;;;30.15;;
18130;SDS011;9191;54.324;10.126;2022-08-01T01:46:30;40.90;;;26.85;;
18130;SDS011;9191;54.324;10.126;2022-08-01T01:48:58;40.00;;;28.13;;
18130;SDS011;9191;54.324;10.126;2022-08-01T01:51:27;42.78;;;27.30;;
18130;SDS011;9191;54.324;10.126;2022-08-01T01:53:55;44.97;;;27.55;;
18130;SDS011;9191;54.324;10.126;2022-08-01T01:56:22;43.13;;;28.10;;
18130;SDS011;9191;54.324;10.126;2022-08-01T01:58:52;39.65;;;26.00;;
18130;SDS011;9191;54.324;10.126;2022-08-01T02:01:24;39.70;;;25.65;;
18130;SDS011;9191;54.324;10.126;2022-08-01T02:03:54;39.80;;;26.60;;
18130;SDS011;9191;54.324;10.126;2022-08-01T02:06:22;47.80;;;27.30;;
18130;SDS011;9191;54.324;10.126;2022-08-01T02:08:51;37.90;;;26.65;;
18130;SDS011;9191;54.324;10.126;2022-08-01T02:11:19;41.33;;;26.77;;
18130;SDS011;9191;54.324;10.126;2022-08-01T02:13:48;39.15;;;27.00;;
18130;SDS011;9191;54.324;10.126;2022-08-01T02:16:20;42.88;;;27.15;;
18130;SDS011;9191;54.324;10.126;2022-08-01T02:18:50;40.70;;;26.30;;
18130;SDS011;9191;54.324;10.126;2022-08-01T02:21:19;41.72;;;27.65;;
18130;SDS011;9191;54.324;10.126;2022-08-01T02:23:52;38.33;;;26.08;;
18130;SDS011;9191;54.324;10.126;2022-08-01T02:26:21;42.20;;;27.55;;
18130;SDS011;9191;54.324;10.126;2022-08-01T02:28:50;46.88;;;27.35;;
18130;SDS011;9191;54.324;10.126;2022-08-01T02:31:23;38.72;;;24.83;;
18130;SDS011;9191;54.324;10.126;2022-08-01T02:33:53;38.37;;;26.73;;
18130;SDS011;9191;54.324;10.126;2022-08-01T02:36:25;42.13;;;26.50;;
18130;SDS011;9191;54.324;10.126;2022-08-01T02:38:54;40.35;;;26.98;;
18130;SDS011;9191;54.324;10.126;2022-08-01T02:41:23;35.20;;;24.70;;
18130;SDS011;9191;54.324;10.126;2022-08-01T02:43:52;38.23;;;26.73;;
18130;SDS011;9191;54.324;10.126;2022-08-01T02:46:26;36.80;;;26.07;;
18130;SDS011;9191;54.324;10.126;2022-08-01T02:48:59;39.50;;;25.87;;
18130;SDS011;9191;54.324;10.126;2022-08-01T02:51:28;41.08;;;27.77;;
18130;SDS011;9191;54.324;10.126;2022-08-01T02:53:57;38.00;;;26.10;;
18130;SDS011;9191;54.324;10.126;2022-08-01T02:56:27;36.83;;;26.90;;
18130;SDS011;9191;54.324;10.126;2022-08-01T02:59:01;41.00;;;25.40;;
18130;SDS011;9191;54.324;10.126;2022-08-01T03:01:30;36.78;;;25.45;;
18130;SDS011;9191;54.324;10.126;2022-08-01T03:04:00;36.47;;;26.15;;
18130;SDS011;9191;54.324;10.126;2022-08-01T03:06:27;34.53;;;25.60;;
18130;SDS011;9191;54.324;10.126;2022-08-01T03:08:55;39.15;;;26.77;;
18130;SDS011;9191;54.324;10.126;2022-08-01T03:11:23;40.63;;;26.67;;
18130;SDS011;9191;54.324;10.126;2022-08-01T03:13:51;42.08;;;28.00;;
18130;SDS011;9191;54.324;10.126;2022-08-01T03:16:19;34.78;;;25.63;;
18130;SDS011;9191;54.324;10.126;2022-08-01T03:18:48;31.90;;;24.70;;
18130;SDS011;9191;54.324;10.126;2022-08-01T03:21:18;35.15;;;24.98;;
18130;SDS011;9191;54.324;10.126;2022-08-01T03:23:47;31.90;;;24.13;;
18130;SDS011;9191;54.324;10.126;2022-08-01T03:26:18;31.13;;;23.98;;
18130;SDS011;9191;54.324;10.126;2022-08-01T03:28:46;32.13;;;24.50;;
18130;SDS011;9191;54.324;10.126;2022-08-01T03:31:13;32.00;;;24.63;;
18130;SDS011;9191;54.324;10.126;2022-08-01T03:33:41;31.55;;;23.30;;
18130;SDS011;9191;54.324;10.126;2022-08-01T03:36:08;32.50;;;23.95;;
18130;SDS011;9191;54.324;10.126;2022-08-01T03:38:38;29.83;;;23.38;;
18130;SDS011;9191;54.324;10.126;2022-08-01T03:41:08;32.47;;;24.15;;
18130;SDS011;9191;54.324;10.126;2022-08-01T03:43:40;31.73;;;22.80;;
18130;SDS011;9191;54.324;10.126;2022-08-01T03:46:13;28.70;;;22.27;;
18130;SDS011;9191;54.324;10.126;2022-08-01T03:48:46;34.60;;;22.17;;
18130;SDS011;9191;54.324;10.126;2022-08-01T03:51:15;26.98;;;21.63;;
18130;SDS011;9191;54.324;10.126;2022-08-01T03:53:44;28.70;;;21.50;;
18130;SDS011;9191;54.324;10.126;2022-08-01T03:56:13;27.90;;;22.27;;
18130;SDS011;9191;54.324;10.126;2022-08-01T03:58:45;23.35;;;20.50;;
18130;SDS011;9191;54.324;10.126;2022-08-01T04:01:12;27.53;;;19.23;;
18130;SDS011;9191;54.324;10.126;2022-08-01T04:03:40;27.15;;;19.92;;
18130;SDS011;9191;54.324;10.126;2022-08-01T04:06:08;22.97;;;19.07;;
18130;SDS011;9191;54.324;10.126;2022-08-01T04:08:35;24.98;;;18.40;;
18130;SDS011;9191;54.324;10.126;2022-08-01T04:11:03;22.57;;;18.00;;
18130;SDS011;9191;54.324;10.126;2022-08-01T04:13:31;19.35;;;17.08;;
18130;SDS011;9191;54.324;10.126;2022-08-01T04:15:58;18.98;;;16.00;;
18130;SDS011;9191;54.324;10.126;2022-08-01T04:18:25;19.73;;;16.35;;
18130;SDS011;9191;54.324;10.126;2022-08-01T04:20:52;20.05;;;15.75;;
18130;SDS011;9191;54.324;10.126;2022-08-01T04:23:19;18.17;;;14.32;;
18130;SDS011;9191;54.324;10.126;2022-08-01T04:25:50;17.20;;;15.40;;
18130;SDS011;9191;54.324;10.126;2022-08-01T04:28:19;16.80;;;14.90;;
18130;SDS011;9191;54.324;10.126;2022-08-01T04:30:48;15.88;;;14.18;;
18130;SDS011;9191;54.324;10.126;2022-08-01T04:33:18;14.97;;;13.43;;
18130;SDS011;9191;54.324;10.126;2022-08-01T04:35:46;15.98;;;13.73;;
18130;SDS011;9191;54.324;10.126;2022-08-01T04:38:15;16.03;;;13.73;;
18130;SDS011;9191;54.324;10.126;2022-08-01T04:40:46;19.08;;;12.90;;
18130;SDS011;9191;54.324;10.126;2022-08-01T04:43:15;14.23;;;11.63;;
18130;SDS011;9191;54.324;10.126;2022-08-01T04:45:45;17.65;;;11.73;;
18130;SDS011;9191;54.324;10.126;2022-08-01T04:48:15;14.45;;;12.70;;
18130;SDS011;9191;54.324;10.126;2022-08-01T04:50:45;15.80;;;12.35;;
18130;SDS011;9191;54.324;10.126;2022-08-01T04:53:12;14.80;;;11.75;;
18130;SDS011;9191;54.324;10.126;2022-08-01T04:55:41;14.55;;;12.18;;
18130;SDS011;9191;54.324;10.126;2022-08-01T04:58:08;15.00;;;12.02;;
18130;SDS011;9191;54.324;10.126;2022-08-01T05:00:36;15.48;;;11.23;;
18130;SDS011;9191;54.324;10.126;2022-08-01T05:03:04;16.15;;;12.57;;
18130;SDS011;9191;54.324;10.126;2022-08-01T05:05:31;13.77;;;11.73;;
18130;SDS011;9191;54.324;10.126;2022-08-01T05:07:58;13.40;;;11.73;;
18130;SDS011;9191;54.324;10.126;2022-08-01T05:10:25;14.70;;;12.47;;
18130;SDS011;9191;54.324;10.126;2022-08-01T05:12:52;13.20;;;11.75;;
18130;SDS011;9191;54.324;10.126;2022-08-01T05:15:19;17.10;;;13.07;;
18130;SDS011;9191;54.324;10.126;2022-08-01T05:17:46;13.90;;;11.85;;
18130;SDS011;9191;54.324;10.126;2022-08-01T05:20:14;15.77;;;12.55;;
18130;SDS011;9191;54.324;10.126;2022-08-01T05:22:41;14.60;;;13.10;;
18130;SDS011;9191;54.324;10.126;2022-08-01T05:25:08;16.73;;;12.27;;
18130;SDS011;9191;54.324;10.126;2022-08-01T05:27:35;14.50;;;13.00;;
18130;SDS011;9191;54.324;10.126;2022-08-01T05:30:05;16.42;;;13.05;;
18130;SDS011;9191;54.324;10.126;2022-08-01T05:32:32;15.55;;;13.15;;
18130;SDS011;9191;54.324;10.126;2022-08-01T05:34:59;18.92;;;14.05;;
18130;SDS011;9191;54.324;10.126;2022-08-01T05:37:28;15.10;;;13.55;;
18130;SDS011;9191;54.324;10.126;2022-08-01T05:39:55;15.18;;;13.38;;
18130;SDS011;9191;54.324;10.126;2022-08-01T05:42:21;15.13;;;13.55;;
18130;SDS011;9191;54.324;10.126;2022-08-01T05:44:48;14.60;;;12.63;;
18130;SDS011;9191;54.324;10.126;2022-08-01T05:47:15;17.35;;;12.38;;
18130;SDS011;9191;54.324;10.126;2022-08-01T05:49:42;15.82;;;12.25;;
18130;SDS011;9191;54.324;10.126;2022-08-01T05:52:09;17.25;;;12.48;;
18130;SDS011;9191;54.324;10.126;2022-08-01T05:54:38;14.02;;;11.85;;
18130;SDS011;9191;54.324;10.126;2022-08-01T05:57:05;16.80;;;12.00;;
18130;SDS011;9191;54.324;10.126;2022-08-01T05:59:32;14.35;;;12.80;;
18130;SDS011;9191;54.324;10.126;2022-08-01T06:01:59;16.83;;;13.80;;
18130;SDS011;9191;54.324;10.126;2022-08-01T06:04:26;15.88;;;13.70;;
18130;SDS011;9191;54.324;10.126;2022-08-01T06:06:53;12.80;;;11.52;;
18130;SDS011;9191;54.324;10.126;2022-08-01T06:09:20;11.70;;;10.23;;
18130;SDS011;9191;54.324;10.126;2022-08-01T06:11:48;14.82;;;8.55;;
18130;SDS011;9191;54.324;10.126;2022-08-01T06:14:15;10.90;;;8.05;;
18130;SDS011;9191;54.324;10.126;2022-08-01T06:16:42;12.40;;;10.88;;
18130;SDS011;9191;54.324;10.126;2022-08-01T06:19:09;13.85;;;10.00;;
18130;SDS011;9191;54.324;10.126;2022-08-01T06:21:35;10.10;;;7.32;;
18130;SDS011;9191;54.324;10.126;2022-08-01T06:24:03;12.95;;;10.30;;
18130;SDS011;9191;54.324;10.126;2022-08-01T06:26:30;11.95;;;8.15;;
18130;SDS011;9191;54.324;10.126;2022-08-01T06:28:58;10.05;;;7.72;;
18130;SDS011;9191;54.324;10.126;2022-08-01T06:31:25;14.13;;;7.65;;
18130;SDS011;9191;54.324;10.126;2022-08-01T06:33:52;8.00;;;7.18;;
18130;SDS011;9191;54.324;10.126;2022-08-01T06:36:20;9.80;;;7.00;;
18130;SDS011;9191;54.324;10.126;2022-08-01T06:38:47;9.48;;;6.68;;
18130;SDS011;9191;54.324;10.126;2022-08-01T06:41:14;7.90;;;6.03;;
18130;SDS011;9191;54.324;10.126;2022-08-01T06:43:41;8.43;;;6.00;;
18130;SDS011;9191;54.324;10.126;2022-08-01T06:46:09;15.43;;;11.57;;
18130;SDS011;9191;54.324;10.126;2022-08-01T06:48:36;63.13;;;37.42;;
18130;SDS011;9191;54.324;10.126;2022-08-01T06:51:04;19.27;;;11.98;;
18130;SDS011;9191;54.324;10.126;2022-08-01T06:53:34;6.67;;;4.60;;
18130;SDS011;9191;54.324;10.126;2022-08-01T06:56:01;6.25;;;5.18;;
18130;SDS011;9191;54.324;10.126;2022-08-01T06:58:28;8.20;;;5.43;;
18130;SDS011;9191;54.324;10.126;2022-08-01T07:00:55;10.52;;;6.13;;
18130;SDS011;9191;54.324;10.126;2022-08-01T07:03:23;5.45;;;4.13;;
18130;SDS011;9191;54.324;10.126;2022-08-01T07:05:50;7.22;;;4.13;;
18130;SDS011;9191;54.324;10.126;2022-08-01T07:08:17;10.25;;;5.25;;
18130;SDS011;9191;54.324;10.126;2022-08-01T07:10:44;4.80;;;3.50;;
18130;SDS011;9191;54.324;10.126;2022-08-01T07:13:10;4.90;;;3.60;;
18130;SDS011;9191;54.324;10.126;2022-08-01T07:15:39;4.70;;;4.15;;
18130;SDS011;9191;54.324;10.126;2022-08-01T07:18:06;4.53;;;3.90;;
18130;SDS011;9191;54.324;10.126;2022-08-01T07:20:34;4.25;;;3.88;;
18130;SDS011;9191;54.324;10.126;2022-08-01T07:23:03;4.03;;;3.10;;
18130;SDS011;9191;54.324;10.126;2022-08-01T07:25:30;4.97;;;3.13;;
18130;SDS011;9191;54.324;10.126;2022-08-01T07:27:57;7.00;;;3.00;;
18130;SDS011;9191;54.324;10.126;2022-08-01T07:30:24;7.75;;;2.90;;
18130;SDS011;9191;54.324;10.126;2022-08-01T07:32:51;4.47;;;2.60;;
18130;SDS011;9191;54.324;10.126;2022-08-01T07:35:18;4.18;;;2.88;;
18130;SDS011;9191;54.324;10.126;2022-08-01T07:37:46;5.40;;;3.03;;
18130;SDS011;9191;54.324;10.126;2022-08-01T07:40:13;5.78;;;3.13;;
18130;SDS011;9191;54.324;10.126;2022-08-01T07:42:40;7.30;;;3.42;;
18130;SDS011;9191;54.324;10.126;2022-08-01T07:45:08;6.57;;;3.05;;
18130;SDS011;9191;54.324;10.126;2022-08-01T07:47:36;4.13;;;2.70;;
18130;SDS011;9191;54.324;10.126;2022-08-01T07:50:03;31.88;;;22.23;;
18130;SDS011;9191;54.324;10.126;2022-08-01T07:52:31;5.13;;;3.50;;
18130;SDS011;9191;54.324;10.126;2022-08-01T07:55:00;14.93;;;7.05;;
18130;SDS011;9191;54.324;10.126;2022-08-01T07:57:27;6.88;;;3.90;;
18130;SDS011;9191;54.324;10.126;2022-08-01T07:59:54;5.05;;;3.22;;
18130;SDS011;9191;54.324;10.126;2022-08-01T08:02:21;6.93;;;3.20;;
18130;SDS011;9191;54.324;10.126;2022-08-01T08:04:48;7.78;;;3.20;;
18130;SDS011;9191;54.324;10.126;2022-08-01T08:07:15;5.15;;;3.40;;
18130;SDS011;9191;54.324;10.126;2022-08-01T08:09:41;12.75;;;4.15;;
18130;SDS011;9191;54.324;10.126;2022-08-01T08:12:12;9.13;;;3.55;;
18130;SDS011;9191;54.324;10.126;2022-08-01T08:14:39;7.22;;;3.55;;
18130;SDS011;9191;54.324;10.126;2022-08-01T08:17:08;14.10;;;3.30;;
18130;SDS011;9191;54.324;10.126;2022-08-01T08:19:35;9.70;;;3.38;;
18130;SDS011;9191;54.324;10.126;2022-08-01T08:22:04;6.18;;;2.20;;
18130;SDS011;9191;54.324;10.126;2022-08-01T08:24:31;7.45;;;2.80;;
18130;SDS011;9191;54.324;10.126;2022-08-01T08:26:59;8.40;;;3.28;;
18130;SDS011;9191;54.324;10.126;2022-08-01T08:29:28;8.45;;;3.08;;
18130;SDS011;9191;54.324;10.126;2022-08-01T08:31:57;8.50;;;3.03;;
18130;SDS011;9191;54.324;10.126;2022-08-01T08:34:26;7.75;;;2.67;;
18130;SDS011;9191;54.324;10.126;2022-08-01T08:36:53;8.20;;;2.97;;
18130;SDS011;9191;54.324;10.126;2022-08-01T08:39:21;12.32;;;3.10;;
18130;SDS011;9191;54.324;10.126;2022-08-01T08:41:48;18.75;;;3.17;;
18130;SDS011;9191;54.324;10.126;2022-08-01T08:44:15;8.52;;;3.03;;
18130;SDS011;9191;54.324;10.126;2022-08-01T08:46:45;8.07;;;2.65;;
18130;SDS011;9191;54.324;10.126;2022-08-01T08:49:15;7.95;;;2.63;;
18130;SDS011;9191;54.324;10.126;2022-08-01T08:51:44;6.45;;;2.03;;
18130;SDS011;9191;54.324;10.126;2022-08-01T08:54:15;7.30;;;2.22;;
18130;SDS011;9191;54.324;10.126;2022-08-01T08:56:43;5.60;;;2.95;;
18130;SDS011;9191;54.324;10.126;2022-08-01T08:59:12;9.40;;;3.70;;
18130;SDS011;9191;54.324;10.126;2022-08-01T09:01:39;16.95;;;9.38;;
18130;SDS011;9191;54.324;10.126;2022-08-01T09:04:07;12.05;;;4.20;;
18130;SDS011;9191;54.324;10.126;2022-08-01T09:06:34;11.00;;;4.45;;
18130;SDS011;9191;54.324;10.126;2022-08-01T09:09:01;11.05;;;3.33;;
18130;SDS011;9191;54.324;10.126;2022-08-01T09:11:28;11.00;;;2.88;;
18130;SDS011;9191;54.324;10.126;2022-08-01T09:14:06;9.00;;;3.47;;
18130;SDS011;9191;54.324;10.126;2022-08-01T09:16:35;9.45;;;3.17;;
18130;SDS011;9191;54.324;10.126;2022-08-01T09:19:09;9.15;;;2.88;;
18130;SDS011;9191;54.324;10.126;2022-08-01T09:21:37;8.60;;;3.17;;
18130;SDS011;9191;54.324;10.126;2022-08-01T09:24:12;7.55;;;2.35;;
18130;SDS011;9191;54.324;10.126;2022-08-01T09:26:40;8.07;;;2.67;;
18130;SDS011;9191;54.324;10.126;2022-08-01T09:29:07;6.55;;;2.60;;
18130;SDS011;9191;54.324;10.126;2022-08-01T09:31:43;6.22;;;2.58;;
18130;SDS011;9191;54.324;10.126;2022-08-01T09:34:13;5.40;;;2.40;;
18130;SDS011;9191;54.324;10.126;2022-08-01T09:36:48;7.90;;;2.20;;
18130;SDS011;9191;54.324;10.126;2022-08-01T09:39:19;5.20;;;2.15;;
18130;SDS011;9191;54.324;10.126;2022-08-01T09:41:47;7.60;;;2.60;;
18130;SDS011;9191;54.324;10.126;2022-08-01T09:44:14;5.20;;;2.35;;
18130;SDS011;9191;54.324;10.126;2022-08-01T09:46:48;6.13;;;2.00;;
18130;SDS011;9191;54.324;10.126;2022-08-01T09:49:27;4.82;;;1.77;;
18130;SDS011;9191;54.324;10.126;2022-08-01T09:51:55;7.32;;;1.92;;
18130;SDS011;9191;54.324;10.126;2022-08-01T09:54:30;6.07;;;1.80;;
18130;SDS011;9191;54.324;10.126;2022-08-01T09:57:08;6.88;;;2.40;;
18130;SDS011;9191;54.324;10.126;2022-08-01T09:59:37;7.57;;;1.88;;
18130;SDS011;9191;54.324;10.126;2022-08-01T10:02:07;5.82;;;2.20;;
18130;SDS011;9191;54.324;10.126;2022-08-01T10:04:36;3.90;;;1.70;;
18130;SDS011;9191;54.324;10.126;2022-08-01T10:07:04;5.68;;;1.90;;
18130;SDS011;9191;54.324;10.126;2022-08-01T10:09:33;6.30;;;1.55;;
18130;SDS011;9191;54.324;10.126;2022-08-01T10:12:01;6.13;;;1.83;;
18130;SDS011;9191;54.324;10.126;2022-08-01T10:14:30;4.88;;;2.03;;
18130;SDS011;9191;54.324;10.126;2022-08-01T10:16:59;5.38;;;2.10;;
18130;SDS011;9191;54.324;10.126;2022-08-01T10:19:27;5.35;;;2.10;;
18130;SDS011;9191;54.324;10.126;2022-08-01T10:21:56;4.75;;;1.75;;
18130;SDS011;9191;54.324;10.126;2022-08-01T10:24:24;5.82;;;2.15;;
18130;SDS011;9191;54.324;10.126;2022-08-01T10:26:55;8.23;;;2.00;;
18130;SDS011;9191;54.324;10.126;2022-08-01T10:29:27;6.38;;;2.05;;
18130;SDS011;9191;54.324;10.126;2022-08-01T10:32:00;15.85;;;13.63;;
18130;SDS011;9191;54.324;10.126;2022-08-01T10:34:27;11.82;;;7.15;;
18130;SDS011;9191;54.324;10.126;2022-08-01T10:36:58;7.95;;;3.83;;
18130;SDS011;9191;54.324;10.126;2022-08-01T10:39:26;8.65;;;4.75;;
18130;SDS011;9191;54.324;10.126;2022-08-01T10:41:55;6.68;;;2.25;;
18130;SDS011;9191;54.324;10.126;2022-08-01T10:44:22;7.75;;;2.38;;
18130;SDS011;9191;54.324;10.126;2022-08-01T10:46:52;6.15;;;2.65;;
18130;SDS011;9191;54.324;10.126;2022-08-01T10:49:24;5.25;;;2.17;;
18130;SDS011;9191;54.324;10.126;2022-08-01T10:51:55;4.78;;;1.95;;
18130;SDS011;9191;54.324;10.126;2022-08-01T10:54:25;7.03;;;2.03;;
18130;SDS011;9191;54.324;10.126;2022-08-01T10:56:53;4.70;;;2.08;;
18130;SDS011;9191;54.324;10.126;2022-08-01T10:59:21;5.20;;;1.60;;
18130;SDS011;9191;54.324;10.126;2022-08-01T11:01:56;6.63;;;1.95;;
18130;SDS011;9191;54.324;10.126;2022-08-01T11:04:36;6.22;;;1.88;;
18130;SDS011;9191;54.324;10.126;2022-08-01T11:07:16;3.65;;;1.73;;
18130;SDS011;9191;54.324;10.126;2022-08-01T11:09:46;4.45;;;1.50;;
18130;SDS011;9191;54.324;10.126;2022-08-01T11:12:14;9.18;;;1.98;;
18130;SDS011;9191;54.324;10.126;2022-08-01T11:17:56;5.15;;;2.20;;
18130;SDS011;9191;54.324;10.126;2022-08-01T11:20:27;5.18;;;1.77;;
18130;SDS011;9191;54.324;10.126;2022-08-01T11:26:07;5.18;;;1.65;;
18130;SDS011;9191;54.324;10.126;2022-08-01T11:28:35;5.25;;;2.20;;
18130;SDS011;9191;54.324;10.126;2022-08-01T11:33:51;5.78;;;1.58;;
18130;SDS011;9191;54.324;10.126;2022-08-01T11:36:18;5.70;;;1.90;;
18130;SDS011;9191;54.324;10.126;2022-08-01T11:38:46;4.35;;;1.73;;
18130;SDS011;9191;54.324;10.126;2022-08-01T11:41:16;3.38;;;1.77;;
18130;SDS011;9191;54.324;10.126;2022-08-01T11:43:56;4.35;;;1.52;;
18130;SDS011;9191;54.324;10.126;2022-08-01T11:49:25;5.07;;;2.20;;
18130;SDS011;9191;54.324;10.126;2022-08-01T11:51:58;5.43;;;3.20;;
18130;SDS011;9191;54.324;10.126;2022-08-01T11:54:26;6.40;;;3.15;;
18130;SDS011;9191;54.324;10.126;2022-08-01T11:56:56;8.23;;;3.67;;
18130;SDS011;9191;54.324;10.126;2022-08-01T11:59:24;5.38;;;2.25;;
18130;SDS011;9191;54.324;10.126;2022-08-01T12:01:51;5.85;;;1.90;;
18130;SDS011;9191;54.324;10.126;2022-08-01T12:04:18;6.38;;;2.20;;
18130;SDS011;9191;54.324;10.126;2022-08-01T12:06:45;5.35;;;2.03;;
18130;SDS011;9191;54.324;10.126;2022-08-01T12:09:19;8.15;;;2.28;;
18130;SDS011;9191;54.324;10.126;2022-08-01T12:11:48;4.90;;;1.83;;
18130;SDS011;9191;54.324;10.126;2022-08-01T12:14:17;5.80;;;2.28;;
18130;SDS011;9191;54.324;10.126;2022-08-01T12:16:49;3.67;;;1.80;;
18130;SDS011;9191;54.324;10.126;2022-08-01T12:19:19;5.30;;;2.63;;
18130;SDS011;9191;54.324;10.126;2022-08-01T12:22:06;5.53;;;2.30;;
18130;SDS011;9191;54.324;10.126;2022-08-01T12:24:34;3.22;;;1.92;;
18130;SDS011;9191;54.324;10.126;2022-08-01T12:27:01;4.55;;;1.52;;
18130;SDS011;9191;54.324;10.126;2022-08-01T12:29:36;4.45;;;1.60;;
18130;SDS011;9191;54.324;10.126;2022-08-01T12:32:20;6.20;;;1.60;;
18130;SDS011;9191;54.324;10.126;2022-08-01T12:34:49;6.70;;;2.00;;
18130;SDS011;9191;54.324;10.126;2022-08-01T12:37:16;7.85;;;1.90;;
18130;SDS011;9191;54.324;10.126;2022-08-01T12:39:44;3.60;;;1.48;;
18130;SDS011;9191;54.324;10.126;2022-08-01T12:42:11;6.55;;;1.75;;
18130;SDS011;9191;54.324;10.126;2022-08-01T12:44:40;6.72;;;2.10;;
18130;SDS011;9191;54.324;10.126;2022-08-01T12:47:10;3.47;;;1.92;;
18130;SDS011;9191;54.324;10.126;2022-08-01T12:49:37;4.65;;;1.95;;
18130;SDS011;9191;54.324;10.126;2022-08-01T12:52:07;3.13;;;1.55;;
18130;SDS011;9191;54.324;10.126;2022-08-01T12:57:37;5.28;;;1.73;;
18130;SDS011;9191;54.324;10.126;2022-08-01T13:00:10;3.95;;;1.35;;
18130;SDS011;9191;54.324;10.126;2022-08-01T13:02:46;5.60;;;1.83;;
18130;SDS011;9191;54.324;10.126;2022-08-01T13:05:14;3.90;;;1.27;;
18130;SDS011;9191;54.324;10.126;2022-08-01T13:07:44;3.92;;;1.60;;
18130;SDS011;9191;54.324;10.126;2022-08-01T13:10:12;3.65;;;1.52;;
18130;SDS011;9191;54.324;10.126;2022-08-01T13:12:49;4.53;;;1.67;;
18130;SDS011;9191;54.324;10.126;2022-08-01T13:15:20;6.70;;;1.48;;
18130;SDS011;9191;54.324;10.126;2022-08-01T13:17:55;5.05;;;1.73;;
18130;SDS011;9191;54.324;10.126;2022-08-01T13:20:29;12.63;;;10.30;;
18130;SDS011;9191;54.324;10.126;2022-08-01T13:23:12;6.50;;;1.75;;
18130;SDS011;9191;54.324;10.126;2022-08-01T13:25:47;6.68;;;1.95;;
18130;SDS011;9191;54.324;10.126;2022-08-01T13:28:19;8.13;;;4.80;;
18130;SDS011;9191;54.324;10.126;2022-08-01T13:30:58;8.18;;;6.85;;
18130;SDS011;9191;54.324;10.126;2022-08-01T13:33:27;4.13;;;2.20;;
18130;SDS011;9191;54.324;10.126;2022-08-01T13:36:06;2.88;;;1.55;;
18130;SDS011;9191;54.324;10.126;2022-08-01T13:38:33;5.80;;;1.73;;
18130;SDS011;9191;54.324;10.126;2022-08-01T13:41:18;3.72;;;1.58;;
18130;SDS011;9191;54.324;10.126;2022-08-01T13:43:45;3.63;;;1.63;;
18130;SDS011;9191;54.324;10.126;2022-08-01T13:46:13;8.45;;;2.28;;
18130;SDS011;9191;54.324;10.126;2022-08-01T13:48:40;6.63;;;1.90;;
18130;SDS011;9191;54.324;10.126;2022-08-01T13:51:07;4.28;;;1.63;;
18130;SDS011;9191;54.324;10.126;2022-08-01T13:53:34;5.60;;;1.73;;
18130;SDS011;9191;54.324;10.126;2022-08-01T13:56:01;6.25;;;1.92;;
18130;SDS011;9191;54.324;10.126;2022-08-01T13:58:28;3.28;;;1.70;;
18130;SDS011;9191;54.324;10.126;2022-08-01T14:00:55;3.58;;;1.70;;
18130;SDS011;9191;54.324;10.126;2022-08-01T14:03:23;4.43;;;1.92;;
18130;SDS011;9191;54.324;10.126;2022-08-01T14:05:50;3.72;;;1.80;;
18130;SDS011;9191;54.324;10.126;2022-08-01T14:08:17;6.00;;;2.00;;
18130;SDS011;9191;54.324;10.126;2022-08-01T14:10:44;3.70;;;1.63;;
18130;SDS011;9191;54.324;10.126;2022-08-01T14:13:11;7.25;;;2.22;;
18130;SDS011;9191;54.324;10.126;2022-08-01T14:15:39;7.00;;;1.98;;
18130;SDS011;9191;54.324;10.126;2022-08-01T14:18:06;5.00;;;2.40;;
18130;SDS011;9191;54.324;10.126;2022-08-01T14:20:34;7.72;;;2.25;;
18130;SDS011;9191;54.324;10.126;2022-08-01T14:23:02;3.78;;;2.05;;
18130;SDS011;9191;54.324;10.126;2022-08-01T14:25:29;6.78;;;2.00;;
18130;SDS011;9191;54.324;10.126;2022-08-01T14:27:56;6.38;;;2.15;;
18130;SDS011;9191;54.324;10.126;2022-08-01T14:30:22;6.30;;;1.83;;
18130;SDS011;9191;54.324;10.126;2022-08-01T14:32:49;4.45;;;1.92;;
18130;SDS011;9191;54.324;10.126;2022-08-01T14:35:16;4.32;;;1.85;;
18130;SDS011;9191;54.324;10.126;2022-08-01T14:37:45;5.18;;;1.80;;
18130;SDS011;9191;54.324;10.126;2022-08-01T14:40:12;5.57;;;1.88;;
18130;SDS011;9191;54.324;10.126;2022-08-01T14:42:39;7.50;;;1.98;;
18130;SDS011;9191;54.324;10.126;2022-08-01T14:45:06;5.05;;;1.63;;
18130;SDS011;9191;54.324;10.126;2022-08-01T14:47:35;5.25;;;1.88;;
18130;SDS011;9191;54.324;10.126;2022-08-01T14:50:02;8.95;;;5.90;;
18130;SDS011;9191;54.324;10.126;2022-08-01T14:52:31;8.48;;;2.80;;
18130;SDS011;9191;54.324;10.126;2022-08-01T14:54:59;5.10;;;2.20;;
18130;SDS011;9191;54.324;10.126;2022-08-01T14:57:26;5.25;;;2.10;;
18130;SDS011;9191;54.324;10.126;2022-08-01T14:59:53;7.00;;;1.70;;
18130;SDS011;9191;54.324;10.126;2022-08-01T15:02:20;6.88;;;2.05;;